sensor_id;sensor_type;location;lat;lon;timestamp;P1;durP1;ratioP1;P2;durP2;ratioP2
12745;SDS011;6437;53.686;10.030;2023-05-07T00:01:48;13.93;;;7.15;;
12745;SDS011;6437;53.686;10.030;2023-05-07T00:03:51;12.50;;;6.05;;
12745;SDS011;6437;53.686;10.030;2023-05-07T00:05:56;9.18;;;6.85;;
12745;SDS011;6437;53.686;10.030;2023-05-07T00:07:58;7.20;;;6.03;;
12745;SDS011;6437;53.686;10.030;2023-05-07T00:09:59;10.00;;;6.68;;
12745;SDS011;6437;53.686;10.030;2023-05-07T00:12:02;9.68;;;6.03;;
12745;SDS011;6437;53.686;10.030;2023-05-07T00:14:05;11.52;;;6.93;;
12745;SDS011;6437;53.686;10.030;2023-05-07T00:16:10;19.88;;;6.85;;
12745;SDS011;6437;53.686;10.030;2023-05-07T00:18:18;10.68;;;6.40;;
12745;SDS011;6437;53.686;10.030;2023-05-07T00:20:32;11.70;;;7.15;;
12745;SDS011;6437;53.686;10.030;2023-05-07T00:22:35;11.13;;;8.15;;
12745;SDS011;6437;53.686;10.030;2023-05-07T00:24:38;10.23;;;6.40;;
12745;SDS011;6437;53.686;10.030;2023-05-07T00:26:41;8.32;;;5.93;;
12745;SDS011;6437;53.686;10.030;2023-05-07T00:28:44;11.68;;;8.52;;
12745;SDS011;6437;53.686;10.030;2023-05-07T00:32:53;10.82;;;6.72;;
12745;SDS011;6437;53.686;10.030;2023-05-07T00:34:58;12.32;;;6.82;;
12745;SDS011;6437;53.686;10.030;2023-05-07T00:37:09;14.10;;;7.82;;
12745;SDS011;6437;53.686;10.030;2023-05-07T00:39:12;12.07;;;6.82;;
12745;SDS011;6437;53.686;10.030;2023-05-07T00:41:13;11.65;;;7.70;;
12745;SDS011;6437;53.686;10.030;2023-05-07T00:43:16;10.68;;;7.25;;
12745;SDS011;6437;53.686;10.030;2023-05-07T00:45:18;10.75;;;8.80;;
12745;SDS011;6437;53.686;10.030;2023-05-07T00:47:28;15.45;;;7.82;;
12745;SDS011;6437;53.686;10.030;2023-05-07T00:49:35;12.52;;;7.15;;
12745;SDS011;6437;53.686;10.030;2023-05-07T00:51:41;11.80;;;8.15;;
12745;SDS011;6437;53.686;10.030;2023-05-07T00:53:47;17.20;;;9.60;;
12745;SDS011;6437;53.686;10.030;2023-05-07T00:56:03;12.90;;;8.13;;
12745;SDS011;6437;53.686;10.030;2023-05-07T00:58:06;13.10;;;6.55;;
12745;SDS011;6437;53.686;10.030;2023-05-07T01:00:08;8.52;;;6.00;;
12745;SDS011;6437;53.686;10.030;2023-05-07T01:02:12;8.88;;;6.45;;
12745;SDS011;6437;53.686;10.030;2023-05-07T01:04:16;14.27;;;7.07;;
12745;SDS011;6437;53.686;10.030;2023-05-07T01:06:25;8.85;;;7.07;;
12745;SDS011;6437;53.686;10.030;2023-05-07T01:08:38;11.30;;;7.63;;
12745;SDS011;6437;53.686;10.030;2023-05-07T01:10:44;15.80;;;6.57;;
12745;SDS011;6437;53.686;10.030;2023-05-07T01:12:49;9.02;;;6.85;;
12745;SDS011;6437;53.686;10.030;2023-05-07T01:14:55;13.32;;;8.13;;
12745;SDS011;6437;53.686;10.030;2023-05-07T01:17:11;11.88;;;7.90;;
12745;SDS011;6437;53.686;10.030;2023-05-07T01:19:16;14.45;;;8.02;;
12745;SDS011;6437;53.686;10.030;2023-05-07T01:21:37;12.93;;;8.02;;
12745;SDS011;6437;53.686;10.030;2023-05-07T01:23:50;10.60;;;8.48;;
12745;SDS011;6437;53.686;10.030;2023-05-07T01:26:06;11.38;;;7.45;;
12745;SDS011;6437;53.686;10.030;2023-05-07T01:28:08;10.48;;;7.40;;
12745;SDS011;6437;53.686;10.030;2023-05-07T01:30:10;15.35;;;8.63;;
12745;SDS011;6437;53.686;10.030;2023-05-07T01:32:15;9.98;;;7.03;;
12745;SDS011;6437;53.686;10.030;2023-05-07T01:34:31;14.68;;;7.65;;
12745;SDS011;6437;53.686;10.030;2023-05-07T01:36:36;9.52;;;6.80;;
12745;SDS011;6437;53.686;10.030;2023-05-07T01:38:44;9.27;;;6.80;;
12745;SDS011;6437;53.686;10.030;2023-05-07T01:40:47;10.13;;;7.15;;
12745;SDS011;6437;53.686;10.030;2023-05-07T01:42:49;14.27;;;7.88;;
12745;SDS011;6437;53.686;10.030;2023-05-07T01:44:52;13.15;;;7.82;;
12745;SDS011;6437;53.686;10.030;2023-05-07T01:46:56;9.68;;;7.55;;
12745;SDS011;6437;53.686;10.030;2023-05-07T01:48:58;8.45;;;6.50;;
12745;SDS011;6437;53.686;10.030;2023-05-07T01:51:03;11.43;;;6.28;;
12745;SDS011;6437;53.686;10.030;2023-05-07T01:53:06;8.20;;;5.95;;
12745;SDS011;6437;53.686;10.030;2023-05-07T01:55:09;8.75;;;5.75;;
12745;SDS011;6437;53.686;10.030;2023-05-07T01:57:13;12.15;;;6.50;;
12745;SDS011;6437;53.686;10.030;2023-05-07T01:59:15;11.05;;;6.13;;
12745;SDS011;6437;53.686;10.030;2023-05-07T02:01:18;8.82;;;6.57;;
12745;SDS011;6437;53.686;10.030;2023-05-07T02:03:30;13.10;;;6.18;;
12745;SDS011;6437;53.686;10.030;2023-05-07T02:05:37;11.10;;;5.78;;
12745;SDS011;6437;53.686;10.030;2023-05-07T02:07:41;7.53;;;5.20;;
12745;SDS011;6437;53.686;10.030;2023-05-07T02:09:43;7.95;;;5.80;;
12745;SDS011;6437;53.686;10.030;2023-05-07T02:11:46;9.75;;;6.00;;
12745;SDS011;6437;53.686;10.030;2023-05-07T02:13:53;7.95;;;5.55;;
12745;SDS011;6437;53.686;10.030;2023-05-07T02:15:58;11.20;;;5.93;;
12745;SDS011;6437;53.686;10.030;2023-05-07T02:18:07;5.80;;;4.88;;
12745;SDS011;6437;53.686;10.030;2023-05-07T02:20:10;11.15;;;6.60;;
12745;SDS011;6437;53.686;10.030;2023-05-07T02:22:13;11.00;;;6.22;;
12745;SDS011;6437;53.686;10.030;2023-05-07T02:26:17;8.40;;;5.93;;
12745;SDS011;6437;53.686;10.030;2023-05-07T02:28:29;10.27;;;6.95;;
12745;SDS011;6437;53.686;10.030;2023-05-07T02:30:32;7.50;;;5.25;;
12745;SDS011;6437;53.686;10.030;2023-05-07T02:32:34;8.15;;;5.88;;
12745;SDS011;6437;53.686;10.030;2023-05-07T02:34:38;7.40;;;5.68;;
12745;SDS011;6437;53.686;10.030;2023-05-07T02:36:39;8.80;;;6.32;;
12745;SDS011;6437;53.686;10.030;2023-05-07T02:38:41;10.02;;;6.75;;
12745;SDS011;6437;53.686;10.030;2023-05-07T02:42:45;8.00;;;6.30;;
12745;SDS011;6437;53.686;10.030;2023-05-07T02:44:52;12.98;;;5.95;;
12745;SDS011;6437;53.686;10.030;2023-05-07T02:46:57;8.95;;;5.85;;
12745;SDS011;6437;53.686;10.030;2023-05-07T02:48:59;10.73;;;6.95;;
12745;SDS011;6437;53.686;10.030;2023-05-07T02:51:01;10.07;;;6.32;;
12745;SDS011;6437;53.686;10.030;2023-05-07T02:53:05;8.48;;;6.13;;
12745;SDS011;6437;53.686;10.030;2023-05-07T02:55:09;12.40;;;7.22;;
12745;SDS011;6437;53.686;10.030;2023-05-07T02:57:21;9.88;;;7.20;;
12745;SDS011;6437;53.686;10.030;2023-05-07T02:59:24;14.90;;;7.28;;
12745;SDS011;6437;53.686;10.030;2023-05-07T03:01:31;11.55;;;7.13;;
12745;SDS011;6437;53.686;10.030;2023-05-07T03:03:35;11.40;;;6.13;;
12745;SDS011;6437;53.686;10.030;2023-05-07T03:05:37;8.10;;;6.25;;
12745;SDS011;6437;53.686;10.030;2023-05-07T03:07:39;8.93;;;6.88;;
12745;SDS011;6437;53.686;10.030;2023-05-07T03:09:45;9.38;;;6.88;;
12745;SDS011;6437;53.686;10.030;2023-05-07T03:13:49;13.70;;;6.60;;
12745;SDS011;6437;53.686;10.030;2023-05-07T03:15:53;10.65;;;6.28;;
12745;SDS011;6437;53.686;10.030;2023-05-07T03:17:57;14.77;;;7.93;;
12745;SDS011;6437;53.686;10.030;2023-05-07T03:20:06;9.38;;;7.47;;
12745;SDS011;6437;53.686;10.030;2023-05-07T03:22:13;8.63;;;7.07;;
12745;SDS011;6437;53.686;10.030;2023-05-07T03:26:41;15.63;;;7.85;;
12745;SDS011;6437;53.686;10.030;2023-05-07T03:30:45;14.00;;;5.50;;
12745;SDS011;6437;53.686;10.030;2023-05-07T03:32:48;10.82;;;6.80;;
12745;SDS011;6437;53.686;10.030;2023-05-07T03:34:50;9.40;;;6.78;;
12745;SDS011;6437;53.686;10.030;2023-05-07T03:36:53;8.38;;;7.10;;
12745;SDS011;6437;53.686;10.030;2023-05-07T03:38:55;14.15;;;7.80;;
12745;SDS011;6437;53.686;10.030;2023-05-07T03:41:00;8.88;;;6.43;;
12745;SDS011;6437;53.686;10.030;2023-05-07T03:43:02;7.28;;;5.75;;
12745;SDS011;6437;53.686;10.030;2023-05-07T03:45:04;10.43;;;7.78;;
12745;SDS011;6437;53.686;10.030;2023-05-07T03:47:07;8.23;;;5.65;;
12745;SDS011;6437;53.686;10.030;2023-05-07T03:49:13;12.95;;;7.80;;
12745;SDS011;6437;53.686;10.030;2023-05-07T03:51:17;11.13;;;5.93;;
12745;SDS011;6437;53.686;10.030;2023-05-07T03:53:21;9.63;;;5.93;;
12745;SDS011;6437;53.686;10.030;2023-05-07T03:55:26;8.68;;;6.05;;
12745;SDS011;6437;53.686;10.030;2023-05-07T03:57:28;7.93;;;5.72;;
12745;SDS011;6437;53.686;10.030;2023-05-07T03:59:30;9.32;;;6.75;;
12745;SDS011;6437;53.686;10.030;2023-05-07T04:01:32;12.50;;;6.50;;
12745;SDS011;6437;53.686;10.030;2023-05-07T04:03:34;8.90;;;6.97;;
12745;SDS011;6437;53.686;10.030;2023-05-07T04:05:37;8.80;;;5.50;;
12745;SDS011;6437;53.686;10.030;2023-05-07T04:07:40;7.95;;;4.82;;
12745;SDS011;6437;53.686;10.030;2023-05-07T04:09:46;9.75;;;6.22;;
12745;SDS011;6437;53.686;10.030;2023-05-07T04:11:48;10.13;;;6.72;;
12745;SDS011;6437;53.686;10.030;2023-05-07T04:13:52;8.05;;;5.43;;
12745;SDS011;6437;53.686;10.030;2023-05-07T04:15:56;7.68;;;5.82;;
12745;SDS011;6437;53.686;10.030;2023-05-07T04:17:58;9.88;;;6.00;;
12745;SDS011;6437;53.686;10.030;2023-05-07T04:20:00;10.57;;;6.25;;
12745;SDS011;6437;53.686;10.030;2023-05-07T04:22:09;7.90;;;5.95;;
12745;SDS011;6437;53.686;10.030;2023-05-07T04:24:11;8.85;;;5.75;;
12745;SDS011;6437;53.686;10.030;2023-05-07T04:26:18;10.73;;;6.50;;
12745;SDS011;6437;53.686;10.030;2023-05-07T04:28:21;11.23;;;7.03;;
12745;SDS011;6437;53.686;10.030;2023-05-07T04:30:25;11.15;;;5.78;;
12745;SDS011;6437;53.686;10.030;2023-05-07T04:32:32;9.98;;;6.47;;
12745;SDS011;6437;53.686;10.030;2023-05-07T04:34:40;9.13;;;6.22;;
12745;SDS011;6437;53.686;10.030;2023-05-07T04:36:45;7.70;;;5.05;;
12745;SDS011;6437;53.686;10.030;2023-05-07T04:38:48;10.82;;;6.63;;
12745;SDS011;6437;53.686;10.030;2023-05-07T04:40:52;9.23;;;6.38;;
12745;SDS011;6437;53.686;10.030;2023-05-07T04:42:56;9.07;;;5.63;;
12745;SDS011;6437;53.686;10.030;2023-05-07T04:44:58;10.07;;;6.30;;
12745;SDS011;6437;53.686;10.030;2023-05-07T04:47:05;10.35;;;6.80;;
12745;SDS011;6437;53.686;10.030;2023-05-07T04:49:10;10.30;;;6.22;;
12745;SDS011;6437;53.686;10.030;2023-05-07T04:51:15;12.93;;;6.88;;
12745;SDS011;6437;53.686;10.030;2023-05-07T04:53:20;6.97;;;5.32;;
12745;SDS011;6437;53.686;10.030;2023-05-07T04:55:32;9.52;;;5.38;;
12745;SDS011;6437;53.686;10.030;2023-05-07T04:57:37;11.02;;;5.35;;
12745;SDS011;6437;53.686;10.030;2023-05-07T04:59:42;9.95;;;6.47;;
12745;SDS011;6437;53.686;10.030;2023-05-07T05:01:43;9.02;;;6.53;;
12745;SDS011;6437;53.686;10.030;2023-05-07T05:03:45;8.88;;;6.40;;
12745;SDS011;6437;53.686;10.030;2023-05-07T05:05:52;7.88;;;6.25;;
12745;SDS011;6437;53.686;10.030;2023-05-07T05:09:56;13.15;;;6.13;;
12745;SDS011;6437;53.686;10.030;2023-05-07T05:12:00;9.57;;;5.20;;
12745;SDS011;6437;53.686;10.030;2023-05-07T05:14:08;11.68;;;6.30;;
12745;SDS011;6437;53.686;10.030;2023-05-07T05:16:15;8.10;;;4.10;;
12745;SDS011;6437;53.686;10.030;2023-05-07T05:18:20;6.65;;;4.50;;
12745;SDS011;6437;53.686;10.030;2023-05-07T05:20:31;8.95;;;4.97;;
12745;SDS011;6437;53.686;10.030;2023-05-07T05:22:37;7.32;;;5.30;;
12745;SDS011;6437;53.686;10.030;2023-05-07T05:24:45;5.88;;;4.45;;
12745;SDS011;6437;53.686;10.030;2023-05-07T05:26:57;10.43;;;5.15;;
12745;SDS011;6437;53.686;10.030;2023-05-07T05:29:02;12.52;;;5.25;;
12745;SDS011;6437;53.686;10.030;2023-05-07T05:31:06;9.40;;;5.00;;
12745;SDS011;6437;53.686;10.030;2023-05-07T05:33:10;8.82;;;4.88;;
12745;SDS011;6437;53.686;10.030;2023-05-07T05:35:12;7.05;;;4.03;;
12745;SDS011;6437;53.686;10.030;2023-05-07T05:37:15;8.27;;;3.97;;
12745;SDS011;6437;53.686;10.030;2023-05-07T05:39:19;8.90;;;5.57;;
12745;SDS011;6437;53.686;10.030;2023-05-07T05:41:21;8.50;;;4.53;;
12745;SDS011;6437;53.686;10.030;2023-05-07T05:43:26;10.35;;;4.90;;
12745;SDS011;6437;53.686;10.030;2023-05-07T05:45:28;10.50;;;4.38;;
12745;SDS011;6437;53.686;10.030;2023-05-07T05:47:32;7.13;;;4.95;;
12745;SDS011;6437;53.686;10.030;2023-05-07T05:49:35;12.20;;;4.03;;
12745;SDS011;6437;53.686;10.030;2023-05-07T05:51:49;6.82;;;4.00;;
12745;SDS011;6437;53.686;10.030;2023-05-07T05:53:51;7.07;;;4.55;;
12745;SDS011;6437;53.686;10.030;2023-05-07T05:55:55;6.70;;;4.32;;
12745;SDS011;6437;53.686;10.030;2023-05-07T05:58:00;7.93;;;3.92;;
12745;SDS011;6437;53.686;10.030;2023-05-07T06:02:04;6.03;;;4.25;;
12745;SDS011;6437;53.686;10.030;2023-05-07T06:04:06;9.48;;;4.60;;
12745;SDS011;6437;53.686;10.030;2023-05-07T06:06:09;8.95;;;5.07;;
12745;SDS011;6437;53.686;10.030;2023-05-07T06:08:14;5.88;;;4.20;;
12745;SDS011;6437;53.686;10.030;2023-05-07T06:10:17;9.07;;;3.38;;
12745;SDS011;6437;53.686;10.030;2023-05-07T06:12:27;9.32;;;4.95;;
12745;SDS011;6437;53.686;10.030;2023-05-07T06:14:34;7.25;;;4.68;;
12745;SDS011;6437;53.686;10.030;2023-05-07T06:16:36;6.03;;;4.47;;
12745;SDS011;6437;53.686;10.030;2023-05-07T06:18:39;8.45;;;4.60;;
12745;SDS011;6437;53.686;10.030;2023-05-07T06:20:40;9.68;;;4.65;;
12745;SDS011;6437;53.686;10.030;2023-05-07T06:22:44;7.10;;;4.85;;
12745;SDS011;6437;53.686;10.030;2023-05-07T06:24:46;8.60;;;4.68;;
12745;SDS011;6437;53.686;10.030;2023-05-07T06:26:47;8.27;;;4.53;;
12745;SDS011;6437;53.686;10.030;2023-05-07T06:28:49;5.78;;;3.85;;
12745;SDS011;6437;53.686;10.030;2023-05-07T06:30:51;7.18;;;4.15;;
12745;SDS011;6437;53.686;10.030;2023-05-07T06:32:53;8.60;;;4.20;;
12745;SDS011;6437;53.686;10.030;2023-05-07T06:34:57;9.82;;;4.60;;
12745;SDS011;6437;53.686;10.030;2023-05-07T06:37:01;8.43;;;5.03;;
12745;SDS011;6437;53.686;10.030;2023-05-07T06:39:04;5.40;;;3.92;;
12745;SDS011;6437;53.686;10.030;2023-05-07T06:41:08;5.28;;;3.65;;
12745;SDS011;6437;53.686;10.030;2023-05-07T06:43:10;8.95;;;4.75;;
12745;SDS011;6437;53.686;10.030;2023-05-07T06:45:12;4.97;;;4.18;;
12745;SDS011;6437;53.686;10.030;2023-05-07T06:47:14;9.23;;;4.03;;
12745;SDS011;6437;53.686;10.030;2023-05-07T06:49:16;6.80;;;3.92;;
12745;SDS011;6437;53.686;10.030;2023-05-07T06:51:18;5.07;;;3.63;;
12745;SDS011;6437;53.686;10.030;2023-05-07T06:53:32;5.28;;;4.25;;
12745;SDS011;6437;53.686;10.030;2023-05-07T06:55:45;5.47;;;4.05;;
12745;SDS011;6437;53.686;10.030;2023-05-07T06:57:54;5.13;;;3.63;;
12745;SDS011;6437;53.686;10.030;2023-05-07T07:00:01;7.68;;;4.93;;
12745;SDS011;6437;53.686;10.030;2023-05-07T07:02:10;5.93;;;4.18;;
12745;SDS011;6437;53.686;10.030;2023-05-07T07:04:14;9.38;;;4.05;;
12745;SDS011;6437;53.686;10.030;2023-05-07T07:07:13;8.73;;;5.50;;
12745;SDS011;6437;53.686;10.030;2023-05-07T07:10:01;7.53;;;3.85;;
12745;SDS011;6437;53.686;10.030;2023-05-07T07:12:05;10.57;;;4.40;;
12745;SDS011;6437;53.686;10.030;2023-05-07T07:14:07;9.68;;;4.18;;
12745;SDS011;6437;53.686;10.030;2023-05-07T07:16:12;10.00;;;4.40;;
12745;SDS011;6437;53.686;10.030;2023-05-07T07:18:13;5.50;;;3.17;;
12745;SDS011;6437;53.686;10.030;2023-05-07T07:20:15;7.63;;;3.22;;
12745;SDS011;6437;53.686;10.030;2023-05-07T07:22:17;8.93;;;3.25;;
12745;SDS011;6437;53.686;10.030;2023-05-07T07:24:19;11.38;;;3.65;;
12745;SDS011;6437;53.686;10.030;2023-05-07T07:26:21;5.85;;;3.45;;
12745;SDS011;6437;53.686;10.030;2023-05-07T07:28:24;4.47;;;2.88;;
12745;SDS011;6437;53.686;10.030;2023-05-07T07:30:26;7.25;;;3.55;;
12745;SDS011;6437;53.686;10.030;2023-05-07T07:32:28;4.70;;;2.63;;
12745;SDS011;6437;53.686;10.030;2023-05-07T07:34:30;3.90;;;2.60;;
12745;SDS011;6437;53.686;10.030;2023-05-07T07:36:31;4.63;;;3.20;;
12745;SDS011;6437;53.686;10.030;2023-05-07T07:38:33;6.35;;;3.83;;
12745;SDS011;6437;53.686;10.030;2023-05-07T07:40:35;3.72;;;2.53;;
12745;SDS011;6437;53.686;10.030;2023-05-07T07:42:37;3.90;;;2.35;;
12745;SDS011;6437;53.686;10.030;2023-05-07T07:44:40;6.22;;;2.72;;
12745;SDS011;6437;53.686;10.030;2023-05-07T07:46:42;4.47;;;2.60;;
12745;SDS011;6437;53.686;10.030;2023-05-07T07:48:43;4.70;;;2.70;;
12745;SDS011;6437;53.686;10.030;2023-05-07T07:50:48;3.67;;;2.80;;
12745;SDS011;6437;53.686;10.030;2023-05-07T07:52:50;8.30;;;2.83;;
12745;SDS011;6437;53.686;10.030;2023-05-07T07:54:52;4.93;;;3.17;;
12745;SDS011;6437;53.686;10.030;2023-05-07T07:56:53;7.35;;;3.42;;
12745;SDS011;6437;53.686;10.030;2023-05-07T07:58:55;12.02;;;4.00;;
12745;SDS011;6437;53.686;10.030;2023-05-07T08:00:58;10.38;;;3.58;;
12745;SDS011;6437;53.686;10.030;2023-05-07T08:03:00;6.18;;;2.92;;
12745;SDS011;6437;53.686;10.030;2023-05-07T08:05:03;5.40;;;2.70;;
12745;SDS011;6437;53.686;10.030;2023-05-07T08:07:05;6.97;;;3.90;;
12745;SDS011;6437;53.686;10.030;2023-05-07T08:09:07;3.88;;;2.65;;
12745;SDS011;6437;53.686;10.030;2023-05-07T08:13:11;8.60;;;3.55;;
12745;SDS011;6437;53.686;10.030;2023-05-07T08:15:14;4.07;;;2.63;;
12745;SDS011;6437;53.686;10.030;2023-05-07T08:19:22;4.90;;;2.75;;
12745;SDS011;6437;53.686;10.030;2023-05-07T08:21:29;10.55;;;3.78;;
12745;SDS011;6437;53.686;10.030;2023-05-07T08:23:31;7.72;;;3.20;;
12745;SDS011;6437;53.686;10.030;2023-05-07T08:25:34;4.38;;;3.03;;
12745;SDS011;6437;53.686;10.030;2023-05-07T08:27:37;4.45;;;2.28;;
12745;SDS011;6437;53.686;10.030;2023-05-07T08:29:39;4.90;;;2.25;;
12745;SDS011;6437;53.686;10.030;2023-05-07T08:31:40;4.75;;;2.40;;
12745;SDS011;6437;53.686;10.030;2023-05-07T08:33:44;6.13;;;2.53;;
12745;SDS011;6437;53.686;10.030;2023-05-07T08:35:45;4.88;;;2.65;;
12745;SDS011;6437;53.686;10.030;2023-05-07T08:37:47;2.95;;;2.20;;
12745;SDS011;6437;53.686;10.030;2023-05-07T08:39:49;8.18;;;2.70;;
12745;SDS011;6437;53.686;10.030;2023-05-07T08:41:51;5.00;;;3.00;;
12745;SDS011;6437;53.686;10.030;2023-05-07T08:43:57;5.80;;;3.22;;
12745;SDS011;6437;53.686;10.030;2023-05-07T08:46:00;9.02;;;2.63;;
12745;SDS011;6437;53.686;10.030;2023-05-07T08:48:03;9.25;;;2.72;;
12745;SDS011;6437;53.686;10.030;2023-05-07T08:50:19;4.55;;;2.20;;
12745;SDS011;6437;53.686;10.030;2023-05-07T08:52:21;5.32;;;2.88;;
12745;SDS011;6437;53.686;10.030;2023-05-07T08:54:24;5.05;;;2.45;;
12745;SDS011;6437;53.686;10.030;2023-05-07T08:56:29;3.97;;;2.35;;
12745;SDS011;6437;53.686;10.030;2023-05-07T08:58:31;5.57;;;2.95;;
12745;SDS011;6437;53.686;10.030;2023-05-07T09:00:33;3.92;;;1.95;;
12745;SDS011;6437;53.686;10.030;2023-05-07T09:02:36;5.03;;;2.28;;
12745;SDS011;6437;53.686;10.030;2023-05-07T09:06:41;8.32;;;2.30;;
12745;SDS011;6437;53.686;10.030;2023-05-07T09:08:44;4.43;;;2.75;;
12745;SDS011;6437;53.686;10.030;2023-05-07T09:10:51;3.65;;;1.90;;
12745;SDS011;6437;53.686;10.030;2023-05-07T09:12:54;3.55;;;2.03;;
12745;SDS011;6437;53.686;10.030;2023-05-07T09:14:56;4.57;;;2.10;;
12745;SDS011;6437;53.686;10.030;2023-05-07T09:16:58;4.07;;;1.73;;
12745;SDS011;6437;53.686;10.030;2023-05-07T09:19:00;4.35;;;2.20;;
12745;SDS011;6437;53.686;10.030;2023-05-07T09:21:02;3.40;;;1.70;;
12745;SDS011;6437;53.686;10.030;2023-05-07T09:23:05;3.90;;;2.53;;
12745;SDS011;6437;53.686;10.030;2023-05-07T09:25:08;3.92;;;2.10;;
12745;SDS011;6437;53.686;10.030;2023-05-07T09:27:10;5.20;;;2.35;;
12745;SDS011;6437;53.686;10.030;2023-05-07T09:29:13;3.13;;;1.73;;
12745;SDS011;6437;53.686;10.030;2023-05-07T09:31:17;3.78;;;2.08;;
12745;SDS011;6437;53.686;10.030;2023-05-07T09:33:19;7.22;;;2.70;;
12745;SDS011;6437;53.686;10.030;2023-05-07T09:35:20;3.85;;;1.75;;
12745;SDS011;6437;53.686;10.030;2023-05-07T09:37:25;4.05;;;2.33;;
12745;SDS011;6437;53.686;10.030;2023-05-07T09:39:39;8.95;;;3.45;;
12745;SDS011;6437;53.686;10.030;2023-05-07T09:41:45;2.63;;;1.50;;
12745;SDS011;6437;53.686;10.030;2023-05-07T09:43:47;5.57;;;2.63;;
12745;SDS011;6437;53.686;10.030;2023-05-07T09:45:55;4.82;;;2.17;;
12745;SDS011;6437;53.686;10.030;2023-05-07T09:47:58;7.10;;;2.72;;
12745;SDS011;6437;53.686;10.030;2023-05-07T09:50:01;3.72;;;2.55;;
12745;SDS011;6437;53.686;10.030;2023-05-07T09:52:07;4.07;;;2.13;;
12745;SDS011;6437;53.686;10.030;2023-05-07T09:54:10;4.25;;;1.83;;
12745;SDS011;6437;53.686;10.030;2023-05-07T09:58:16;5.32;;;2.08;;
12745;SDS011;6437;53.686;10.030;2023-05-07T10:00:20;4.63;;;2.00;;
12745;SDS011;6437;53.686;10.030;2023-05-07T10:02:23;3.22;;;2.10;;
12745;SDS011;6437;53.686;10.030;2023-05-07T10:04:27;7.05;;;3.38;;
12745;SDS011;6437;53.686;10.030;2023-05-07T10:06:29;10.07;;;2.13;;
12745;SDS011;6437;53.686;10.030;2023-05-07T10:08:31;6.13;;;2.47;;
12745;SDS011;6437;53.686;10.030;2023-05-07T10:10:33;7.75;;;1.90;;
12745;SDS011;6437;53.686;10.030;2023-05-07T10:14:40;6.15;;;2.35;;
12745;SDS011;6437;53.686;10.030;2023-05-07T10:16:43;3.58;;;1.98;;
12745;SDS011;6437;53.686;10.030;2023-05-07T10:18:46;3.72;;;2.03;;
12745;SDS011;6437;53.686;10.030;2023-05-07T10:20:48;8.40;;;2.22;;
12745;SDS011;6437;53.686;10.030;2023-05-07T10:22:53;4.65;;;2.10;;
12745;SDS011;6437;53.686;10.030;2023-05-07T10:24:58;3.67;;;1.75;;
12745;SDS011;6437;53.686;10.030;2023-05-07T10:27:04;4.55;;;1.67;;
12745;SDS011;6437;53.686;10.030;2023-05-07T10:29:12;4.68;;;2.50;;
12745;SDS011;6437;53.686;10.030;2023-05-07T10:31:25;4.35;;;2.40;;
12745;SDS011;6437;53.686;10.030;2023-05-07T10:33:38;5.95;;;3.00;;
12745;SDS011;6437;53.686;10.030;2023-05-07T10:35:41;7.13;;;2.20;;
12745;SDS011;6437;53.686;10.030;2023-05-07T10:37:44;5.50;;;1.80;;
12745;SDS011;6437;53.686;10.030;2023-05-07T10:39:47;4.82;;;2.08;;
12745;SDS011;6437;53.686;10.030;2023-05-07T10:41:49;6.82;;;2.42;;
12745;SDS011;6437;53.686;10.030;2023-05-07T10:43:50;10.82;;;2.75;;
12745;SDS011;6437;53.686;10.030;2023-05-07T10:46:10;3.25;;;1.52;;
12745;SDS011;6437;53.686;10.030;2023-05-07T10:48:16;5.35;;;2.03;;
12745;SDS011;6437;53.686;10.030;2023-05-07T10:50:22;7.63;;;2.17;;
12745;SDS011;6437;53.686;10.030;2023-05-07T10:52:27;2.42;;;1.70;;
12745;SDS011;6437;53.686;10.030;2023-05-07T10:54:31;8.43;;;1.63;;
12745;SDS011;6437;53.686;10.030;2023-05-07T10:56:34;4.50;;;2.05;;
12745;SDS011;6437;53.686;10.030;2023-05-07T10:58:35;1.85;;;1.25;;
12745;SDS011;6437;53.686;10.030;2023-05-07T11:05:20;5.05;;;1.90;;
12745;SDS011;6437;53.686;10.030;2023-05-07T11:07:27;2.00;;;1.40;;
12745;SDS011;6437;53.686;10.030;2023-05-07T11:11:55;4.80;;;1.00;;
12745;SDS011;6437;53.686;10.030;2023-05-07T11:13:58;3.83;;;1.85;;
12745;SDS011;6437;53.686;10.030;2023-05-07T11:15:59;2.22;;;1.77;;
12745;SDS011;6437;53.686;10.030;2023-05-07T11:22:19;2.58;;;1.50;;
12745;SDS011;6437;53.686;10.030;2023-05-07T11:24:39;4.63;;;1.67;;
12745;SDS011;6437;53.686;10.030;2023-05-07T11:26:44;3.40;;;1.90;;
12745;SDS011;6437;53.686;10.030;2023-05-07T11:28:56;3.28;;;2.22;;
12745;SDS011;6437;53.686;10.030;2023-05-07T11:31:08;4.72;;;1.60;;
12745;SDS011;6437;53.686;10.030;2023-05-07T11:33:11;3.17;;;2.40;;
12745;SDS011;6437;53.686;10.030;2023-05-07T11:35:14;4.32;;;1.60;;
12745;SDS011;6437;53.686;10.030;2023-05-07T11:37:18;2.60;;;1.73;;
12745;SDS011;6437;53.686;10.030;2023-05-07T11:39:24;4.15;;;1.70;;
12745;SDS011;6437;53.686;10.030;2023-05-07T11:41:34;5.65;;;1.98;;
12745;SDS011;6437;53.686;10.030;2023-05-07T11:43:37;3.53;;;2.13;;
12745;SDS011;6437;53.686;10.030;2023-05-07T11:45:40;2.88;;;1.70;;
12745;SDS011;6437;53.686;10.030;2023-05-07T11:47:41;12.70;;;2.20;;
12745;SDS011;6437;53.686;10.030;2023-05-07T11:49:43;10.50;;;2.17;;
12745;SDS011;6437;53.686;10.030;2023-05-07T11:51:49;6.35;;;1.95;;
12745;SDS011;6437;53.686;10.030;2023-05-07T11:53:51;3.92;;;1.95;;
12745;SDS011;6437;53.686;10.030;2023-05-07T11:55:53;7.45;;;1.70;;
12745;SDS011;6437;53.686;10.030;2023-05-07T11:57:56;2.53;;;1.42;;
12745;SDS011;6437;53.686;10.030;2023-05-07T11:59:58;9.95;;;2.15;;
12745;SDS011;6437;53.686;10.030;2023-05-07T12:02:01;3.00;;;1.60;;
12745;SDS011;6437;53.686;10.030;2023-05-07T12:04:03;7.30;;;2.10;;
12745;SDS011;6437;53.686;10.030;2023-05-07T12:06:06;2.05;;;1.60;;
12745;SDS011;6437;53.686;10.030;2023-05-07T12:08:10;4.72;;;1.70;;
12745;SDS011;6437;53.686;10.030;2023-05-07T12:10:15;2.55;;;1.35;;
12745;SDS011;6437;53.686;10.030;2023-05-07T12:12:17;4.05;;;1.05;;
12745;SDS011;6437;53.686;10.030;2023-05-07T12:14:18;3.03;;;2.05;;
12745;SDS011;6437;53.686;10.030;2023-05-07T12:16:20;5.53;;;1.48;;
12745;SDS011;6437;53.686;10.030;2023-05-07T12:18:22;2.60;;;1.50;;
12745;SDS011;6437;53.686;10.030;2023-05-07T12:20:25;2.80;;;1.25;;
12745;SDS011;6437;53.686;10.030;2023-05-07T12:22:28;3.10;;;1.52;;
12745;SDS011;6437;53.686;10.030;2023-05-07T12:24:42;1.38;;;1.02;;
12745;SDS011;6437;53.686;10.030;2023-05-07T12:26:45;1.80;;;1.38;;
12745;SDS011;6437;53.686;10.030;2023-05-07T12:28:46;5.18;;;1.67;;
12745;SDS011;6437;53.686;10.030;2023-05-07T12:30:48;2.22;;;1.17;;
12745;SDS011;6437;53.686;10.030;2023-05-07T12:32:52;4.50;;;1.75;;
12745;SDS011;6437;53.686;10.030;2023-05-07T12:34:54;2.97;;;1.40;;
12745;SDS011;6437;53.686;10.030;2023-05-07T12:36:56;1.42;;;1.20;;
12745;SDS011;6437;53.686;10.030;2023-05-07T12:38:57;1.40;;;1.10;;
12745;SDS011;6437;53.686;10.030;2023-05-07T12:41:02;4.47;;;1.33;;
12745;SDS011;6437;53.686;10.030;2023-05-07T12:43:04;4.30;;;1.30;;
12745;SDS011;6437;53.686;10.030;2023-05-07T12:45:09;2.47;;;1.40;;
12745;SDS011;6437;53.686;10.030;2023-05-07T12:47:11;8.13;;;1.67;;
12745;SDS011;6437;53.686;10.030;2023-05-07T12:49:13;3.25;;;1.60;;
12745;SDS011;6437;53.686;10.030;2023-05-07T12:51:15;7.10;;;1.80;;
12745;SDS011;6437;53.686;10.030;2023-05-07T12:53:19;4.18;;;1.30;;
12745;SDS011;6437;53.686;10.030;2023-05-07T12:55:22;6.93;;;2.00;;
12745;SDS011;6437;53.686;10.030;2023-05-07T12:57:25;2.28;;;1.35;;
12745;SDS011;6437;53.686;10.030;2023-05-07T12:59:31;1.95;;;1.02;;
12745;SDS011;6437;53.686;10.030;2023-05-07T13:01:34;3.88;;;1.42;;
12745;SDS011;6437;53.686;10.030;2023-05-07T13:03:36;3.60;;;1.25;;
12745;SDS011;6437;53.686;10.030;2023-05-07T13:05:38;2.88;;;1.30;;